• Join FlightAware (Why Join?)
  • Login
  • US Flag 
07:49PM EDT


 

Airport Tracker/Info


-or-


 

Live Flight TrackerFlight Track Log ✈ DAL1903 ✈ 27-Oct-2013 ✈ KSLC - KLAX

Flight Track Log - Related Links

Times and Time Zones

All times are in EDT time to prevent confusion due to time zone crossing. See the DAL1903 flight status page for this flight to view local times or setup timezone preferences in your user account.

Time Position Orientation Groundspeed Altitude Reporting Facility
EDT Latitude Longitude Course Direction KTS MPH feet Rate Location/Type
10:51PM 40.7758 -111.9756 189° South 222 255 4,700  Level Salt Lake Center
10:51PM 40.7606 -111.9753 179° South 179 206 5,700 1,920 Climbing Salt Lake Center
10:52PM 40.7014 -111.9697 176° South 217 250 7,500 1,680 Climbing Salt Lake Center
10:53PM 40.6961 -111.9678 164° South 214 246 7,800 2,640 Climbing Salt Lake Center
10:54PM 40.6225 -111.9633 177° South 261 300 10,800 2,700 Climbing Salt Lake Center
10:55PM 40.5013 -112.2803 189° South  Level Estimated
10:55PM 40.5197 -111.9556 177° South 320 368 13,400  Level Salt Lake Center
10:56PM 40.4294 -112.3556 189° South  Level Estimated
10:56PM 40.4286 -111.9500 177° South 331 381 14,100  Level Salt Lake Center
10:57PM 40.3342 -111.9436 177° South 339 390 14,100 300 Level Salt Lake Center
10:58PM 40.2394 -111.9450 181° South 342 394 14,800 1,380 Climbing Salt Lake Center
10:59PM 40.1417 -111.9592 186° South 354 407 17,000 2,520 Climbing Salt Lake Center
11:00PM 40.0425 -111.9733 186° South 358 412 20,000 1,860 Climbing Salt Lake Center
11:01PM 39.9378 -111.9897 187° South 387 445 20,800 960 Climbing Salt Lake Center
11:02PM 39.8211 -112.0072 187° South 425 489 22,000 1,320 Climbing Salt Lake Center
11:03PM 39.7006 -112.0242 186° South 435 501 23,600 1,620 Climbing Salt Lake Center
11:04PM 39.5542 -112.0450 186° South 440 506 25,300 1,500 Climbing Salt Lake Center
11:05PM 39.4267 -112.0639 187° South 459 528 26,700 1,560 Climbing Salt Lake Center
11:06PM 39.3017 -112.0808 186° South 451 519 28,500 1,620 Climbing Salt Lake Center
11:07PM 39.1914 -112.0961 186° South 443 510 30,100 1,620 Climbing Salt Lake Center
11:08PM 39.0764 -112.1444 198° South 438 504 31,800 1,980 Climbing Salt Lake Center
11:09PM 38.9531 -112.2378 210° Southwest 429 494 34,200 1,740 Climbing Salt Lake Center
11:10PM 38.8536 -112.3097 209° Southwest 413 475 35,400 1,020 Climbing Salt Lake Center
11:11PM 38.7556 -112.3872 212° Southwest 415 478 36,400 900 Climbing Salt Lake Center
11:12PM 38.6628 -112.4750 216° Southwest 416 479 37,300 780 Climbing Salt Lake Center
11:13PM 38.5700 -112.5633 217° Southwest 417 480 38,000 300 Climbing Salt Lake Center
11:14PM 38.4786 -112.6489 216° Southwest 410 472 38,000  Level Salt Lake Center
11:15PM 38.3861 -112.7350 216° Southwest 412 474 38,000  Level Salt Lake Center
11:16PM 38.2928 -112.8208 216° Southwest 415 478 38,000  Level Salt Lake Center
11:17PM 38.1989 -112.9081 216° Southwest 419 482 38,000  Level Salt Lake Center
11:18PM 38.0864 -113.0111 216° Southwest 420 483 38,000  Level Salt Lake Center
11:19PM 37.9942 -113.0956 216° Southwest 414 476 38,000  Level Salt Lake Center
11:20PM 37.9014 -113.1800 216° Southwest 414 476 38,000  Level Salt Lake Center
11:21PM 37.8100 -113.2642 216° Southwest 412 474 38,000  Level Salt Lake Center
11:22PM 37.7189 -113.3475 216° Southwest 409 471 38,000  Level Salt Lake Center
11:23PM 37.6272 -113.4297 215° Southwest 408 470 38,000  Level Salt Lake Center
11:24PM 37.5361 -113.5119 216° Southwest 407 468 38,000  Level Salt Lake Center
11:25PM 37.4275 -113.6106 216° Southwest 405 466 38,000  Level Salt Lake Center
11:26PM 37.3369 -113.6911 215° Southwest 401 461 38,000  Level Salt Lake Center
11:27PM 37.2467 -113.7725 216° Southwest 401 461 38,000  Level Salt Lake Center
11:28PM 37.1575 -113.8519 215° Southwest 396 456 38,000  Level Salt Lake Center
11:29PM 37.0678 -113.9314 215° Southwest 396 456 38,000  Level Salt Lake Center
11:30PM 36.9781 -114.0111 215° Southwest 397 457 38,000  Level Salt Lake Center
11:31PM 36.8872 -114.0906 215° Southwest 399 459 38,000  Level Salt Lake Center
11:32PM 36.8439 -114.1244 212° Southwest 396 456 38,000  Level Los Angeles Center
11:33PM 36.7428 -114.2136 215° Southwest 393 452 38,000  Level Los Angeles Center
11:34PM 36.6464 -114.2983 215° Southwest 397 457 38,000 -480 Level Los Angeles Center
11:35PM 36.5572 -114.3767 215° Southwest 393 452 37,100 -1,020 Descending Los Angeles Center
11:36PM 36.4689 -114.4544 215° Southwest 389 448 36,000 -540 Descending Los Angeles Center
11:37PM 36.3797 -114.5311 215° Southwest 389 448 36,000  Level Los Angeles Center
11:38PM 36.3017 -114.5989 215° Southwest 347 399 36,000  Level Los Angeles Center
11:39PM 36.2256 -114.6633 214° Southwest 334 384 36,000  Level Los Angeles Center
11:40PM 36.1514 -114.7281 215° Southwest 328 377 36,000  Level Los Angeles Center
11:41PM 36.0639 -114.8039 215° Southwest 321 369 36,000  Level Los Angeles Center
11:42PM 35.9903 -114.8664 214° Southwest 320 368 36,000  Level Los Angeles Center
11:43PM 35.8972 -114.8839 189° South 344 396 36,000  Level Los Angeles Center
11:44PM 35.8058 -114.8033 144° Southeast 429 494 36,000  Level Los Angeles Center
11:45PM 35.8056 -114.6436 90° East 494 568 36,000  Level Los Angeles Center
11:46PM 35.9100 -114.5356 40° Northeast 490 564 36,000  Level Los Angeles Center
11:47PM 36.0217 -114.4417 34° Northeast 488 562 36,000  Level Los Angeles Center
11:48PM 36.1439 -114.3892 19° North 481 554 36,000  Level Los Angeles Center
11:49PM 36.2744 -114.4525 339° North 432 497 36,000  Level Los Angeles Center
11:50PM 36.3172 -114.5731 294° West 392 451 36,000  Level Los Angeles Center
11:52PM 36.2881 -114.6953 254° West 370 426 36,000  Level Los Angeles Center
11:53PM 36.2131 -114.7856 224° Southwest 371 427 36,000  Level Los Angeles Center
11:54PM 36.1389 -114.8694 222° Southwest 363 418 36,000  Level Los Angeles Center
11:55PM 36.0644 -114.9542 223° Southwest 362 417 36,000  Level Los Angeles Center
11:56PM 35.9908 -115.0389 223° Southwest 360 414 36,000  Level Los Angeles Center
11:57PM 35.9183 -115.1194 222° Southwest 354 407 36,000  Level Los Angeles Center
11:58PM 35.8497 -115.1983 223° Southwest 338 389 36,000  Level Los Angeles Center
11:59PM 35.7783 -115.2803 223° Southwest 348 400 36,000  Level Los Angeles Center
12:00AM 35.7078 -115.3589 222° Southwest 342 394 36,000  Level Los Angeles Center
12:01AM 35.6239 -115.4528 222° Southwest 335 386 36,000  Level Los Angeles Center
12:02AM 35.5700 -115.5131 222° Southwest 328 377 36,000  Level Los Angeles Center
12:03AM 35.4856 -115.6086 223° Southwest 344 396 36,000  Level Los Angeles Center
12:04AM 35.4039 -115.6994 222° Southwest 353 406 36,000  Level Los Angeles Center
12:05AM 35.3306 -115.7817 222° Southwest 356 410 36,000 -180 Level Los Angeles Center
12:06AM 35.2581 -115.8628 222° Southwest 355 409 35,700 -840 Descending Los Angeles Center
12:07AM 35.1872 -115.9392 221° Southwest 342 394 34,400 -1,380 Descending Los Angeles Center
12:08AM 35.1078 -116.0269 222° Southwest 325 374 32,900 -1,320 Descending Los Angeles Center
12:09AM 35.0428 -116.0983 222° Southwest 316 364 31,700 -1,320 Descending Los Angeles Center
12:10AM 34.9792 -116.1675 222° Southwest 308 354 30,300 -1,320 Descending Los Angeles Center
12:11AM 34.9164 -116.2342 221° Southwest 301 346 29,000 -1,260 Descending Los Angeles Center
12:12AM 34.8531 -116.3025 222° Southwest 302 348 27,800 -1,020 Descending Los Angeles Center
12:13AM 34.7911 -116.3711 222° Southwest 302 348 27,000 -420 Descending Los Angeles Center
12:14AM 34.7247 -116.4431 222° Southwest 308 354 27,000  Level Los Angeles Center
12:15AM 34.6519 -116.5231 222° Southwest 339 390 27,000  Level Los Angeles Center
12:16AM 34.5772 -116.6031 221° Southwest 354 407 27,000 -720 Level Los Angeles Center
12:17AM 34.4908 -116.6964 222° Southwest 348 400 25,600 -1,380 Descending Los Angeles Center
12:18AM 34.4194 -116.7731 222° Southwest 343 395 24,200 -1,500 Descending Los Angeles Center
12:19AM 34.3475 -116.8497 221° Southwest 343 395 22,600 -1,260 Descending Los Angeles Center
12:20AM 34.2789 -116.9225 221° Southwest 332 382 21,700 -1,200 Descending Los Angeles Center
12:21AM 34.2175 -116.9897 222° Southwest 306 352 20,200 -1,320 Descending Los Angeles Center
12:22AM 34.1572 -117.0556 222° Southwest 296 341 19,000 -660 Descending Los Angeles Center
12:23AM 34.1000 -117.1333 228° Southwest 286 329 19,000 -1,020 Level Southern California TRACON
12:24AM 34.0667 -117.2167 244° Southwest 277 319 17,000 -1,740 Descending Southern California TRACON
12:25AM 34.0500 -117.3000 256° West 274 315 15,600 -1,200 Descending Southern California TRACON
12:26AM 34.0333 -117.4000 259° West 268 308 14,600 -900 Descending Southern California TRACON
12:27AM 34.0333 -117.4833 270° West 262 302 13,800 -1,080 Descending Southern California TRACON
12:28AM 34.0333 -117.5833 270° West 270 311 12,500 -1,440 Descending Southern California TRACON
12:29AM 34.0167 -117.6667 256° West 243 280 10,900 -1,500 Descending Southern California TRACON
12:30AM 34.0167 -117.7333 270° West 253 291 9,700 -1,260 Descending Southern California TRACON
12:31AM 34.0167 -117.8333 270° West 256 295 8,400 -1,140 Descending Southern California TRACON
12:32AM 34.0000 -117.9167 256° West 248 285 7,500 -1,260 Descending Southern California TRACON
12:34AM 33.9833 -118.0000 256° West 228 262 5,800 -1,200 Descending Southern California TRACON
12:34AM 33.9833 -118.0667 270° West 228 262 5,000 -840 Descending Southern California TRACON
12:35AM 33.9833 -118.1500 270° West 225 259 4,300 -900 Descending Southern California TRACON
12:36AM 33.9667 -118.2167 253° West 195 224 3,200 -1,080 Descending Southern California TRACON
12:37AM 33.9667 -118.2667 270° West 188 216 2,300 -960 Descending Southern California TRACON
12:38AM 33.9667 -118.3333 270° West 151 174 1,400 -840 Descending Southern California TRACON
12:39AM 33.9500 -118.3667 239° Southwest 131 151 600 -540 Descending Southern California TRACON
12:41AM 33.9494 -118.4308 269° West 142 163 200 -300 Descending Los Angeles Center